Time;durP1;ratioP1;P1;durP2;ratioP2;P2;SDS_P1;SDS_P2;PMS_P1;PMS_P2;Temp;Humidity;BMP_temperature;BMP_pressure;BME280_temperature;BME280_humidity;BME280_pressure;Samples;Min_cycle;Max_cycle;Signal;HPM_P1;HPM_P2
2023/06/16 00:01:02;;;;;;;23.17;21.10;;;;;;;17.97;56.36;100136.06;4992727;28;96750;-76
2023/06/16 00:03:28;;;;;;;23.35;21.35;;;;;;;18.05;56.50;100156.81;5010870;28;96968;-76
2023/06/16 00:05:55;;;;;;;23.90;22.00;;;;;;;18.03;56.61;100162.22;5010470;28;98911;-76
2023/06/16 00:08:21;;;;;;;24.55;22.60;;;;;;;18.01;56.58;100158.00;4992639;28;98426;-76
2023/06/16 00:10:47;;;;;;;24.05;22.05;;;;;;;17.92;56.83;100148.84;5013374;28;98203;-76
2023/06/16 00:13:12;;;;;;;25.13;23.02;;;;;;;17.87;56.83;100146.47;5014124;28;96810;-76
2023/06/16 00:15:38;;;;;;;23.33;21.65;;;;;;;17.83;57.16;100141.47;5014035;28;98691;-76
2023/06/16 00:18:04;;;;;;;23.92;22.02;;;;;;;17.84;57.61;100149.34;5013952;28;99446;-76
2023/06/16 00:20:32;;;;;;;25.45;23.38;;;;;;;17.81;57.46;100143.41;5014509;28;96992;-76
2023/06/16 00:22:57;;;;;;;24.70;22.77;;;;;;;17.82;57.20;100148.59;4995899;28;97182;-76
2023/06/16 00:25:23;;;;;;;24.95;22.73;;;;;;;17.79;57.65;100140.81;4995080;28;98668;-76
2023/06/16 00:27:48;;;;;;;24.42;22.63;;;;;;;17.78;57.32;100133.81;5013006;28;98498;-76
2023/06/16 00:30:14;;;;;;;24.60;22.80;;;;;;;17.79;57.71;100142.63;5014199;28;96722;-76
2023/06/16 00:32:40;;;;;;;24.15;22.25;;;;;;;17.78;57.42;100154.22;5013564;28;97255;-76
2023/06/16 00:35:06;;;;;;;24.27;22.23;;;;;;;17.73;57.64;100140.34;5014112;28;99050;-76
2023/06/16 00:37:32;;;;;;;23.30;21.23;;;;;;;17.70;58.18;100146.72;5013376;28;98297;-76
2023/06/16 00:39:57;;;;;;;25.10;23.10;;;;;;;17.53;57.88;100118.63;5013788;28;96868;-76
2023/06/16 00:42:23;;;;;;;25.52;23.00;;;;;;;17.70;58.00;100135.25;5014107;28;96883;-76
2023/06/16 00:44:48;;;;;;;24.48;22.58;;;;;;;17.70;57.70;100141.41;5013459;28;98700;-76
2023/06/16 00:47:14;;;;;;;24.38;22.23;;;;;;;17.71;57.64;100140.44;5013514;28;98808;-76
2023/06/16 00:49:40;;;;;;;23.75;21.33;;;;;;;17.74;57.82;100142.06;4994948;28;96738;-76
2023/06/16 00:52:07;;;;;;;24.55;22.65;;;;;;;17.76;57.54;100133.03;5013841;28;96811;-76
2023/06/16 00:54:33;;;;;;;23.45;21.42;;;;;;;17.76;58.18;100137.50;4995179;28;99098;-76
2023/06/16 00:56:59;;;;;;;24.40;22.55;;;;;;;17.67;57.93;100124.84;5013694;28;98343;-76
2023/06/16 00:59:27;;;;;;;24.50;22.50;;;;;;;17.73;57.88;100122.63;4978386;28;96774;-76
2023/06/16 01:01:54;;;;;;;25.45;23.27;;;;;;;17.64;57.94;100118.78;5013562;28;96868;-76
2023/06/16 01:04:22;;;;;;;25.48;23.05;;;;;;;17.67;57.92;100130.16;5011958;28;99098;-75
2023/06/16 01:06:58;;;;;;;24.67;22.67;;;;;;;17.65;58.01;100131.09;4995272;28;98335;-76
2023/06/16 01:09:52;;;;;;;24.33;21.90;;;;;;;17.60;57.91;100122.59;4995048;28;97538;-76
2023/06/16 01:12:30;;;;;;;23.70;21.70;;;;;;;17.56;58.19;100122.91;4995755;28;96839;-76
2023/06/16 01:15:22;;;;;;;24.20;22.38;;;;;;;17.53;58.16;100126.59;4978010;28;100929;-76
2023/06/16 01:17:50;;;;;;;24.60;22.70;;;;;;;17.54;57.98;100116.81;5009440;28;98440;-76
2023/06/16 01:20:41;;;;;;;24.05;21.98;;;;;;;17.49;57.92;100113.66;4995443;28;96807;-76
2023/06/16 01:23:25;;;;;;;24.20;22.25;;;;;;;17.49;58.29;100116.31;4995055;28;97202;-76
2023/06/16 01:25:53;;;;;;;26.50;22.30;;;;;;;17.50;58.27;100113.53;5011958;28;98684;-76
2023/06/16 01:28:20;;;;;;;25.25;22.90;;;;;;;17.46;58.11;100103.25;4994894;28;98349;-76
2023/06/16 01:30:50;;;;;;;24.33;22.30;;;;;;;17.42;58.39;100102.56;4995245;28;96774;-76
2023/06/16 01:33:17;;;;;;;24.08;22.08;;;;;;;17.39;57.99;100100.13;5013325;28;96848;-76
2023/06/16 01:35:44;;;;;;;25.15;23.00;;;;;;;17.49;58.24;100114.50;4994936;28;99030;-76
2023/06/16 01:38:11;;;;;;;23.98;21.98;;;;;;;17.40;58.01;100096.53;4994234;28;98857;-76
2023/06/16 01:40:37;;;;;;;23.55;21.75;;;;;;;17.52;58.37;100114.28;4994706;28;96855;-76
2023/06/16 01:43:03;;;;;;;25.45;22.90;;;;;;;17.53;57.67;100109.84;4994192;28;96885;-76
2023/06/16 01:45:29;;;;;;;23.77;21.85;;;;;;;17.45;57.84;100099.72;4995134;28;98987;-76
2023/06/16 01:47:55;;;;;;;24.00;22.05;;;;;;;17.55;57.58;100111.44;5012109;28;98766;-76
2023/06/16 01:50:21;;;;;;;25.70;23.45;;;;;;;17.52;57.64;100108.13;4994960;28;97542;-76
2023/06/16 01:52:46;;;;;;;24.30;22.42;;;;;;;17.53;57.71;100109.84;4992384;28;96787;-76
2023/06/16 01:55:12;;;;;;;24.20;22.30;;;;;;;17.51;57.57;100107.28;5012734;28;98994;-76
2023/06/16 01:57:38;;;;;;;24.92;22.83;;;;;;;17.46;57.44;100104.09;4994564;28;98766;-76
2023/06/16 02:00:18;;;;;;;25.30;23.25;;;;;;;17.51;57.12;100106.41;4978189;28;96802;-76
2023/06/16 02:03:02;;;;;;;24.40;22.25;;;;;;;17.43;57.25;100102.47;4994440;28;97218;-76
2023/06/16 02:05:29;;;;;;;24.67;22.45;;;;;;;17.38;57.42;100099.28;5011786;28;98729;-76
2023/06/16 02:07:57;;;;;;;26.33;24.13;;;;;;;17.42;57.43;100100.78;4993962;28;98421;-76
2023/06/16 02:10:23;;;;;;;25.77;23.33;;;;;;;17.39;57.13;100097.47;4994708;28;97126;-76
2023/06/16 02:12:49;;;;;;;23.05;20.90;;;;;;;17.34;57.05;100089.81;4977391;28;97137;-76
2023/06/16 02:15:20;;;;;;;22.95;21.13;;;;;;;17.39;57.26;100102.78;4994661;28;98663;-76
2023/06/16 02:17:47;;;;;;;;;;;;;;;17.28;57.24;100107.94;4980023;28;100309;-76
2023/06/16 02:20:13;;;;;;;24.45;22.02;;;;;;;17.26;57.48;100109.84;5012643;28;96783;-76
2023/06/16 02:22:39;;;;;;;24.27;21.98;;;;;;;17.11;57.91;100093.97;5012385;28;96809;-76
2023/06/16 02:25:06;;;;;;;22.13;20.23;;;;;;;17.13;57.82;100099.16;4993507;28;98749;-76
2023/06/16 02:27:31;;;;;;;22.88;21.15;;;;;;;17.14;57.66;100099.09;5011766;28;98651;-76
2023/06/16 02:29:57;;;;;;;22.98;21.17;;;;;;;17.11;57.66;100099.28;5003406;28;97342;-76
2023/06/16 02:32:22;;;;;;;24.17;22.02;;;;;;;17.12;57.72;100100.97;5011952;28;97137;-76
2023/06/16 02:34:48;;;;;;;24.00;22.02;;;;;;;17.11;57.60;100103.75;5025075;28;98478;-76
2023/06/16 02:37:14;;;;;;;23.55;21.27;;;;;;;17.08;57.72;100103.94;4993729;28;99058;-76
2023/06/16 02:39:40;;;;;;;25.23;22.77;;;;;;;16.96;57.94;100100.28;5011245;28;96977;-76
2023/06/16 02:42:07;;;;;;;23.60;21.60;;;;;;;17.03;58.11;100108.69;4994031;28;96880;-76
2023/06/16 02:44:33;;;;;;;24.92;22.55;;;;;;;16.97;57.89;100094.84;4993585;28;100498;-76
2023/06/16 02:47:00;;;;;;;23.35;21.58;;;;;;;16.97;58.23;100100.16;5012235;28;98137;-76
2023/06/16 02:49:26;;;;;;;24.92;22.83;;;;;;;16.98;57.94;100096.56;4993570;28;96817;-76
2023/06/16 02:51:53;;;;;;;23.73;21.83;;;;;;;16.98;57.89;100098.34;4993949;28;96930;-76
2023/06/16 02:54:18;;;;;;;24.63;22.33;;;;;;;16.92;58.33;100091.66;5011174;28;98567;-75
2023/06/16 02:56:44;;;;;;;24.42;22.52;;;;;;;16.96;57.98;100106.44;4993553;28;100347;-76
2023/06/16 02:59:10;;;;;;;23.50;21.77;;;;;;;16.92;58.37;100094.28;5011477;28;97032;-75
2023/06/16 03:01:37;;;;;;;24.35;22.15;;;;;;;16.98;58.00;100107.16;4994006;28;97208;-76
2023/06/16 03:04:22;;;;;;;23.73;21.92;;;;;;;16.87;58.36;100096.41;5010774;28;98459;-76
2023/06/16 03:07:02;;;;;;;25.05;22.80;;;;;;;16.94;57.93;100104.81;4993287;28;100614;-75
2023/06/16 03:09:32;;;;;;;23.67;21.70;;;;;;;17.02;57.60;100114.94;5009790;28;97283;-75
2023/06/16 03:11:59;;;;;;;25.30;22.92;;;;;;;17.07;57.75;100112.81;4994031;28;96897;-75
2023/06/16 03:14:26;;;;;;;24.63;22.60;;;;;;;17.08;57.58;100112.75;4993120;28;100386;-76
2023/06/16 03:17:01;;;;;;;24.38;22.17;;;;;;;17.07;57.49;100100.41;4993167;28;98525;-76
2023/06/16 03:19:28;;;;;;;23.73;21.63;;;;;;;17.07;57.41;100113.66;4993059;28;97937;-75
2023/06/16 03:21:53;;;;;;;24.00;21.98;;;;;;;17.05;57.22;100094.38;5010753;28;96986;-76
2023/06/16 03:24:33;;;;;;;24.10;21.58;;;;;;;17.18;57.17;100095.25;5009190;28;98570;-75
2023/06/16 03:26:59;;;;;;;23.88;22.13;;;;;;;17.21;57.18;100091.56;4976605;28;100111;-75
2023/06/16 03:29:40;;;;;;;23.53;21.63;;;;;;;17.34;56.98;100096.94;4993315;28;97064;-75
2023/06/16 03:32:07;;;;;;;25.02;22.92;;;;;;;17.35;56.35;100085.38;5011377;28;97836;-76
2023/06/16 03:34:33;;;;;;;24.83;22.58;;;;;;;17.49;56.53;100097.72;4992603;28;98950;-76
2023/06/16 03:36:59;;;;;;;23.52;21.80;;;;;;;17.45;56.30;100081.13;4993136;28;100160;-75
2023/06/16 03:39:33;;;;;;;24.95;22.42;;;;;;;17.54;56.25;100084.97;4992864;28;96881;-75
2023/06/16 03:41:59;;;;;;;25.65;23.55;;;;;;;17.60;56.20;100087.25;4993166;28;96914;-75
2023/06/16 03:44:24;;;;;;;23.45;21.70;;;;;;;17.59;55.82;100083.72;4992676;28;100479;-75
2023/06/16 03:46:50;;;;;;;23.17;21.30;;;;;;;17.73;55.80;100092.56;5014743;28;97101;-75
2023/06/16 03:49:16;;;;;;;22.95;21.17;;;;;;;17.80;55.85;100085.91;4996210;28;96824;-75
2023/06/16 03:51:43;;;;;;;24.98;22.88;;;;;;;17.93;55.37;100094.75;4996984;28;97718;-75
2023/06/16 03:54:11;;;;;;;24.52;22.20;;;;;;;17.91;55.40;100091.34;4995911;28;100919;-76
2023/06/16 03:56:38;;;;;;;23.58;21.50;;;;;;;18.02;55.43;100101.25;4996598;28;100575;-75
2023/06/16 03:59:04;;;;;;;24.77;22.40;;;;;;;18.13;55.16;100100.53;4996083;28;96885;-76
2023/06/16 04:01:31;;;;;;;26.90;24.17;;;;;;;18.16;55.16;100103.81;4996993;28;97236;-75
2023/06/16 04:03:57;;;;;;;24.10;21.98;;;;;;;18.19;55.17;100100.09;4979245;28;100971;-75
2023/06/16 04:06:25;;;;;;;25.15;22.95;;;;;;;18.06;54.77;100071.75;4996474;28;100552;-75
2023/06/16 04:08:51;;;;;;;23.60;21.80;;;;;;;18.36;54.51;100107.75;4994942;28;97062;-75
2023/06/16 04:11:18;;;;;;;24.15;22.02;;;;;;;18.44;54.08;100105.41;4996372;28;96904;-75
2023/06/16 04:13:44;;;;;;;24.17;22.38;;;;;;;18.53;53.73;100109.22;4995807;28;98668;-76
2023/06/16 04:16:14;;;;;;;24.95;22.65;;;;;;;18.60;53.50;100106.97;4996529;28;100387;-75
2023/06/16 04:18:41;;;;;;;24.92;22.73;;;;;;;18.62;53.44;100089.97;4996061;28;97580;-75
2023/06/16 04:21:07;;;;;;;24.13;22.02;;;;;;;18.68;53.24;100094.84;4996387;28;97111;-75
2023/06/16 04:23:35;;;;;;;23.80;21.88;;;;;;;18.84;53.11;100099.09;4995514;28;100859;-75
2023/06/16 04:26:01;;;;;;;24.05;22.08;;;;;;;18.91;52.73;100100.38;4995929;28;100027;-75
2023/06/16 04:28:28;;;;;;;23.77;21.67;;;;;;;19.00;52.69;100102.34;4995764;28;96834;-77
2023/06/16 04:30:56;;;;;;;24.65;22.25;;;;;;;19.11;52.21;100096.22;5014077;28;97025;-75
2023/06/16 04:33:24;;;;;;;24.38;22.25;;;;;;;19.21;52.36;100094.59;4979185;28;100524;-75
2023/06/16 04:35:50;;;;;;;23.95;21.65;;;;;;;19.34;52.27;100102.53;4995287;28;100028;-75
2023/06/16 04:38:17;;;;;;;24.30;21.88;;;;;;;19.44;52.25;100106.22;5013840;28;96765;-75
2023/06/16 04:40:43;;;;;;;24.25;22.17;;;;;;;19.52;52.22;100098.50;4996360;28;96914;-75
2023/06/16 04:43:10;;;;;;;25.17;22.88;;;;;;;19.58;52.18;100097.22;4994890;28;100802;-75
2023/06/16 04:45:36;;;;;;;25.35;22.55;;;;;;;19.70;51.72;100085.66;4995815;28;100015;-75
2023/06/16 04:48:02;;;;;;;23.95;21.52;;;;;;;19.83;51.36;100093.56;4995242;28;96697;-75
2023/06/16 04:50:28;;;;;;;24.65;22.35;;;;;;;19.97;51.33;100100.50;4996418;28;96876;-75
2023/06/16 04:52:54;;;;;;;23.65;21.75;;;;;;;20.02;51.29;100093.00;5012892;28;98616;-75
2023/06/16 04:55:20;;;;;;;24.15;22.23;;;;;;;20.16;50.96;100091.91;5013449;28;98925;-75
2023/06/16 04:57:46;;;;;;;24.33;21.88;;;;;;;20.28;50.90;100093.66;5012102;28;96719;-75
2023/06/16 05:00:12;;;;;;;23.95;22.15;;;;;;;20.39;50.51;100093.66;5013562;28;96815;-76
2023/06/16 05:02:40;;;;;;;24.60;22.20;;;;;;;20.46;50.70;100094.88;4994978;28;100416;-75
2023/06/16 05:05:06;;;;;;;27.83;22.73;;;;;;;20.56;50.23;100090.50;4994948;28;100448;-75
2023/06/16 05:07:32;;;;;;;25.10;22.60;;;;;;;20.71;50.05;100096.47;5013593;28;96733;-75
2023/06/16 05:09:58;;;;;;;23.55;21.70;;;;;;;20.71;49.78;100093.81;5013400;28;97286;-75
2023/06/16 05:12:27;;;;;;;23.75;21.35;;;;;;;20.86;49.46;100094.41;5006966;28;100807;-75
2023/06/16 05:14:54;;;;;;;29.73;21.70;;;;;;;21.02;49.33;100100.16;5006068;28;100907;-75
2023/06/16 05:17:21;;;;;;;23.90;21.63;;;;;;;21.12;48.98;100094.06;5001671;28;96942;-75
2023/06/16 05:19:47;;;;;;;23.77;21.55;;;;;;;21.27;48.50;100092.84;5013285;28;96765;-75
2023/06/16 05:22:13;;;;;;;22.60;20.90;;;;;;;21.38;48.36;100095.50;5001711;28;100325;-75
2023/06/16 05:24:39;;;;;;;23.35;21.65;;;;;;;21.47;48.04;100096.56;4994335;28;99760;-75
2023/06/16 05:27:06;;;;;;;22.80;20.98;;;;;;;21.61;47.79;100098.06;4999907;28;96775;-75
2023/06/16 05:29:32;;;;;;;23.15;21.00;;;;;;;21.68;47.34;100097.44;4995236;28;97062;-75
2023/06/16 05:31:58;;;;;;;23.25;21.05;;;;;;;21.78;46.38;100096.66;5001154;28;100048;-76
2023/06/16 05:34:24;;;;;;;22.30;20.42;;;;;;;21.85;46.33;100100.53;5012325;28;97373;-75
2023/06/16 05:36:50;;;;;;;23.77;21.73;;;;;;;22.02;46.28;100099.06;4994830;28;96960;-76
2023/06/16 05:39:17;;;;;;;21.67;20.08;;;;;;;22.22;46.30;100106.25;4996617;28;97271;-75
2023/06/16 05:41:43;;;;;;;22.25;20.33;;;;;;;22.44;45.90;100099.91;5000155;28;99061;-75
2023/06/16 05:44:12;;;;;;;23.30;21.25;;;;;;;22.73;45.78;100101.84;4994074;28;98255;-76
2023/06/16 05:46:37;;;;;;;22.48;20.70;;;;;;;23.13;45.05;100099.16;5006351;28;97964;-75
2023/06/16 05:49:04;;;;;;;23.13;20.85;;;;;;;23.76;43.84;100090.75;5002854;28;97121;-75
2023/06/16 05:51:29;;;;;;;21.65;20.15;;;;;;;24.64;42.42;100110.19;5013133;28;98464;-75
2023/06/16 05:53:55;;;;;;;23.85;22.00;;;;;;;25.78;40.40;100101.69;5017950;28;98396;-75
2023/06/16 05:56:23;;;;;;;23.27;21.42;;;;;;;27.14;37.75;100095.56;5000022;28;96700;-75
2023/06/16 05:58:50;;;;;;;22.40;20.73;;;;;;;28.94;35.09;100098.09;4994363;28;96881;-75
2023/06/16 06:01:15;;;;;;;22.38;20.63;;;;;;;31.01;31.83;100088.81;4994105;28;100277;-76
2023/06/16 06:03:47;;;;;;;21.58;20.15;;;;;;;34.50;27.45;100082.75;5011949;28;98425;-76
2023/06/16 06:06:15;;;;;;;21.60;19.88;;;;;;;37.99;23.04;100077.03;4993831;28;97235;-76
2023/06/16 06:08:43;;;;;;;21.60;19.92;;;;;;;40.77;20.53;100079.00;4998179;28;96998;-76
2023/06/16 06:11:09;;;;;;;22.20;20.45;;;;;;;42.59;19.05;100076.38;4999987;28;101027;-76
2023/06/16 06:13:35;;;;;;;23.27;21.23;;;;;;;43.76;17.72;100079.41;5007804;28;100392;-77
2023/06/16 06:16:02;;;;;;;22.27;19.92;;;;;;;44.82;17.29;100073.84;4987213;28;97173;-74
2023/06/16 06:18:28;;;;;;;21.95;20.05;;;;;;;45.69;16.51;100064.94;5013868;28;97316;-75
2023/06/16 06:20:54;;;;;;;22.20;20.67;;;;;;;46.46;15.81;100070.53;4994765;28;100364;-75
2023/06/16 06:23:20;;;;;;;21.95;19.92;;;;;;;46.98;15.63;100065.09;5003259;28;100639;-77
2023/06/16 06:25:47;;;;;;;21.42;19.83;;;;;;;47.86;14.95;100073.72;4988982;28;96964;-76
2023/06/16 06:28:17;;;;;;;21.45;19.55;;;;;;;48.37;14.38;100060.75;4993661;28;96906;-76
2023/06/16 06:30:43;;;;;;;21.02;19.73;;;;;;;49.14;13.74;100060.72;4995609;28;100326;-77
2023/06/16 06:33:09;;;;;;;21.40;19.80;;;;;;;49.54;13.41;100066.41;4992892;28;98665;-77
2023/06/16 06:35:34;;;;;;;20.25;18.95;;;;;;;48.71;13.38;100065.88;5013803;28;97022;-77
2023/06/16 06:38:01;;;;;;;21.27;19.67;;;;;;;49.79;13.03;100064.94;4991632;28;97667;-77
2023/06/16 06:40:27;;;;;;;22.75;20.83;;;;;;;50.64;12.28;100059.19;5000995;28;100564;-77
2023/06/16 06:42:53;;;;;;;22.25;20.45;;;;;;;50.33;12.95;100059.28;5016383;28;100001;-77
2023/06/16 06:45:36;;;;;;;21.17;19.58;;;;;;;51.58;11.77;100047.47;4993988;28;97300;-77
2023/06/16 06:48:02;;;;;;;22.67;20.75;;;;;;;51.84;11.64;100048.25;4993322;28;97076;-76
2023/06/16 06:50:30;;;;;;;19.92;18.63;;;;;;;44.32;15.87;100052.75;4995578;28;100132;-76
2023/06/16 06:52:55;;;;;;;19.88;18.48;;;;;;;39.67;19.46;100065.03;5017273;28;98406;-76
2023/06/16 06:55:21;;;;;;;22.63;20.75;;;;;;;36.70;22.06;100060.16;5008171;28;97172;-76
2023/06/16 06:57:49;;;;;;;23.15;21.45;;;;;;;34.43;23.91;100074.59;5008745;28;98025;-75
2023/06/16 07:00:15;;;;;;;27.42;22.42;;;;;;;32.66;26.00;100070.41;4988708;28;98684;-76
2023/06/16 07:02:41;;;;;;;22.98;21.17;;;;;;;33.30;25.94;100076.50;5018446;28;98705;-76
2023/06/16 07:05:08;;;;;;;23.50;21.65;;;;;;;34.85;24.22;100082.44;5006247;28;97559;-77
2023/06/16 07:07:34;;;;;;;24.58;22.35;;;;;;;33.78;25.39;100079.09;5009688;28;96952;-76
2023/06/16 07:10:00;;;;;;;23.95;22.33;;;;;;;32.40;26.63;100090.09;5008766;28;98914;-76
2023/06/16 07:12:25;;;;;;;22.70;20.80;;;;;;;31.70;27.77;100088.28;5012759;28;98611;-76
2023/06/16 07:14:51;;;;;;;23.80;21.98;;;;;;;31.40;27.55;100093.88;5022214;28;99247;-76
2023/06/16 07:17:16;;;;;;;23.27;21.35;;;;;;;32.31;26.91;100082.31;5009497;28;96817;-76
2023/06/16 07:19:42;;;;;;;21.88;20.42;;;;;;;31.66;28.09;100085.16;5014838;28;98951;-75
2023/06/16 07:22:07;;;;;;;23.38;21.50;;;;;;;30.82;29.18;100088.41;5012947;28;98976;-76
2023/06/16 07:24:33;;;;;;;22.05;20.13;;;;;;;30.27;29.66;100094.28;5017456;28;98221;-76
2023/06/16 07:27:02;;;;;;;23.02;20.80;;;;;;;29.90;30.53;100088.66;5012651;28;98873;-76
2023/06/16 07:29:28;;;;;;;21.48;19.92;;;;;;;29.55;31.30;100088.28;5012894;28;98946;-77
2023/06/16 07:31:53;;;;;;;22.13;20.02;;;;;;;29.10;31.62;100091.81;5011822;28;98406;-76
2023/06/16 07:34:19;;;;;;;22.88;21.17;;;;;;;28.74;32.17;100095.00;5013624;28;96806;-75
2023/06/16 07:36:44;;;;;;;22.30;20.50;;;;;;;28.52;32.41;100099.28;5012171;28;96683;-76
2023/06/16 07:39:10;;;;;;;24.38;22.52;;;;;;;28.55;32.46;100092.69;5008359;28;98806;-77
2023/06/16 07:41:36;;;;;;;24.05;22.25;;;;;;;28.93;32.72;100092.88;5009506;28;98693;-77
2023/06/16 07:44:02;;;;;;;23.40;21.60;;;;;;;30.88;30.44;100092.22;5005868;28;96801;-77
2023/06/16 07:46:27;;;;;;;23.70;21.33;;;;;;;36.52;24.13;100085.63;5004389;28;96884;-77
2023/06/16 07:48:53;;;;;;;23.50;21.40;;;;;;;38.54;22.10;100077.69;5002296;28;98672;-78
2023/06/16 07:51:20;;;;;;;22.25;20.75;;;;;;;37.86;22.72;100079.13;5007043;28;98148;-78
2023/06/16 07:53:48;;;;;;;22.90;20.85;;;;;;;36.39;24.00;100081.13;4996328;28;96998;-78
2023/06/16 07:56:14;;;;;;;20.98;19.45;;;;;;;40.20;20.04;100066.41;5017944;28;96905;-78
2023/06/16 07:58:39;;;;;;;21.10;19.63;;;;;;;35.69;23.99;100084.06;5013829;28;98905;-78
2023/06/16 08:01:06;;;;;;;21.77;19.80;;;;;;;33.63;26.55;100078.44;5014466;28;98282;-78
2023/06/16 08:03:31;;;;;;;21.42;19.85;;;;;;;32.56;27.54;100077.28;5014020;28;97084;-78
2023/06/16 08:05:57;;;;;;;21.63;20.23;;;;;;;30.90;29.84;100088.28;5015010;28;96847;-78
2023/06/16 08:08:26;;;;;;;22.20;20.55;;;;;;;29.75;31.05;100085.09;5013523;28;98827;-78
2023/06/16 08:10:52;;;;;;;22.10;20.50;;;;;;;29.06;32.31;100085.91;5007856;28;98457;-77
2023/06/16 08:13:17;;;;;;;23.02;21.17;;;;;;;27.94;34.18;100090.44;5005664;28;96795;-77
2023/06/16 08:15:43;;;;;;;22.90;21.20;;;;;;;28.04;33.97;100084.03;4996089;28;97076;-77
2023/06/16 08:18:08;;;;;;;21.48;19.85;;;;;;;28.06;34.39;100080.16;5003888;28;99129;-77
2023/06/16 08:20:35;;;;;;;22.00;20.23;;;;;;;28.15;34.37;100084.50;5004337;28;98406;-77
2023/06/16 08:23:00;;;;;;;22.00;20.42;;;;;;;28.20;35.00;100087.53;5013739;28;96777;-78
2023/06/16 08:25:26;;;;;;;21.65;19.88;;;;;;;28.35;34.72;100082.25;5012583;28;96854;-78
2023/06/16 08:27:51;;;;;;;22.63;20.33;;;;;;;28.28;34.04;100081.28;4992490;28;98629;-79
2023/06/16 08:30:17;;;;;;;22.48;20.45;;;;;;;28.15;34.83;100087.19;5007562;28;98626;-79
2023/06/16 08:32:43;;;;;;;22.88;21.00;;;;;;;28.23;34.45;100082.81;5014472;28;97431;-78
2023/06/16 08:35:10;;;;;;;20.60;19.20;;;;;;;27.86;34.24;100084.22;5013020;28;96892;-78
2023/06/16 08:37:36;;;;;;;23.13;20.48;;;;;;;27.72;34.70;100074.91;5007834;28;99127;-77
2023/06/16 08:40:07;;;;;;;24.15;22.00;;;;;;;27.36;35.39;100077.09;4990727;28;98816;-76
2023/06/16 08:42:36;;;;;;;21.95;20.20;;;;;;;27.57;35.67;100080.13;4993961;28;96719;-75
2023/06/16 08:45:03;;;;;;;21.20;19.73;;;;;;;27.93;34.75;100075.28;5012926;28;96903;-76
2023/06/16 08:47:29;;;;;;;21.90;20.35;;;;;;;28.50;34.70;100068.91;5011745;28;98650;-77
2023/06/16 08:49:56;;;;;;;21.30;19.70;;;;;;;28.91;34.17;100065.19;5008937;28;98391;-77
2023/06/16 08:52:23;;;;;;;21.13;19.27;;;;;;;29.47;32.79;100066.72;4989152;28;98449;-79
2023/06/16 08:54:57;;;;;;;21.80;19.92;;;;;;;29.86;33.15;100065.72;5012833;28;96937;-77
2023/06/16 08:57:22;;;;;;;22.35;20.45;;;;;;;30.18;31.50;100064.56;5011641;28;99040;-77
2023/06/16 08:59:50;;;;;;;22.90;21.17;;;;;;;29.95;31.41;100063.78;5013320;28;97090;-78
2023/06/16 09:02:15;;;;;;;22.27;20.58;;;;;;;30.16;31.37;100063.88;4990035;28;98997;-77
2023/06/16 09:04:41;;;;;;;22.83;21.02;;;;;;;30.09;32.29;100059.44;5008197;28;97140;-78
2023/06/16 09:07:07;;;;;;;21.15;19.75;;;;;;;30.22;32.66;100062.34;4992980;28;98751;-77
2023/06/16 09:09:33;;;;;;;21.48;19.95;;;;;;;30.23;32.64;100054.06;5017359;28;98382;-78
2023/06/16 09:12:10;;;;;;;21.75;20.00;;;;;;;30.06;32.25;100051.69;5014740;28;96822;-78
2023/06/16 09:14:37;;;;;;;20.23;18.73;;;;;;;30.16;32.32;100061.19;4983812;28;97428;-77
2023/06/16 09:17:07;;;;;;;21.52;20.13;;;;;;;30.12;31.00;100059.88;5000356;28;99295;-77
2023/06/16 09:19:36;;;;;;;21.10;19.48;;;;;;;30.03;31.76;100065.59;5005671;28;98702;-78
2023/06/16 09:22:02;;;;;;;21.08;19.25;;;;;;;29.82;32.19;100047.34;5013160;28;96821;-76
2023/06/16 09:24:28;;;;;;;21.00;19.25;;;;;;;29.65;32.52;100041.25;5010809;28;97232;-79
2023/06/16 09:26:59;;;;;;;20.35;18.95;;;;;;;29.61;32.99;100048.00;5019251;28;98844;-76
2023/06/16 09:29:28;;;;;;;;;;;;;;;29.64;32.59;100053.06;5016740;28;98731;-76
2023/06/16 09:31:54;;;;;;;19.60;18.30;;;;;;;29.64;31.85;100055.78;5014357;28;97285;-77
2023/06/16 09:34:20;;;;;;;18.95;17.75;;;;;;;29.53;30.63;100049.78;4993314;28;96915;-76
2023/06/16 09:36:45;;;;;;;19.48;18.08;;;;;;;29.63;31.37;100041.44;5011313;28;97939;-76
2023/06/16 09:39:25;;;;;;;18.90;17.60;;;;;;;29.80;31.73;100046.69;5010940;28;98277;-78
2023/06/16 09:41:52;;;;;;;18.35;17.25;;;;;;;29.60;31.54;100038.22;5009094;28;96969;-77
2023/06/16 09:44:18;;;;;;;18.20;16.90;;;;;;;29.57;31.86;100025.91;5011132;28;96807;-77
2023/06/16 09:46:47;;;;;;;18.77;17.45;;;;;;;29.41;30.82;100036.84;5012378;28;99079;-77
2023/06/16 09:49:23;;;;;;;19.52;18.15;;;;;;;29.09;31.01;100041.50;5011161;28;98647;-79
2023/06/16 09:51:56;;;;;;;19.35;17.58;;;;;;;28.92;32.07;100029.91;5013376;28;97438;-80
2023/06/16 09:54:24;;;;;;;18.48;17.27;;;;;;;29.05;32.05;100024.78;5003980;28;98527;-79
2023/06/16 09:56:50;;;;;;;17.40;16.38;;;;;;;29.03;32.41;100023.28;5003863;28;100199;-78
2023/06/16 09:59:16;;;;;;;19.02;17.60;;;;;;;29.21;32.20;100028.41;5007572;28;98410;-79
2023/06/16 10:01:43;;;;;;;19.02;17.52;;;;;;;29.37;32.57;100024.72;5007731;28;97122;-79
2023/06/16 10:04:10;;;;;;;19.73;18.42;;;;;;;29.53;32.71;100027.31;5003187;28;97494;-77
2023/06/16 10:06:47;;;;;;;19.80;18.30;;;;;;;29.54;32.64;100024.41;5010207;28;98550;-77
2023/06/16 10:09:16;;;;;;;19.10;17.70;;;;;;;29.37;32.34;100020.16;5010571;28;98351;-77
2023/06/16 10:11:42;;;;;;;19.60;17.90;;;;;;;29.07;32.01;100008.41;5009458;28;97320;-77
2023/06/16 10:14:08;;;;;;;20.05;18.30;;;;;;;29.03;32.16;100005.22;5015282;28;96801;-76
2023/06/16 10:16:36;;;;;;;19.85;18.40;;;;;;;29.00;32.50;100002.00;4973712;28;98787;-76
2023/06/16 10:19:02;;;;;;;19.30;18.10;;;;;;;28.80;32.13;100009.75;4991660;28;98613;-76
2023/06/16 10:21:28;;;;;;;20.02;18.63;;;;;;;28.70;32.25;100009.94;4991423;28;97249;-77
2023/06/16 10:23:54;;;;;;;19.27;17.95;;;;;;;28.52;32.29;99985.06;4997012;28;96859;-77
2023/06/16 10:26:20;;;;;;;18.88;17.67;;;;;;;28.65;32.66;100010.50;5012057;28;98802;-77
2023/06/16 10:28:46;;;;;;;19.63;18.30;;;;;;;28.69;32.92;100012.84;5014039;28;98635;-77
2023/06/16 10:31:12;;;;;;;19.95;18.45;;;;;;;28.73;32.76;100014.97;4992072;28;97219;-77
2023/06/16 10:33:54;;;;;;;19.95;18.10;;;;;;;28.60;31.81;100012.03;5013078;28;97115;-78
2023/06/16 10:36:39;;;;;;;19.50;18.17;;;;;;;28.65;32.73;100010.50;5010253;28;99022;-78
2023/06/16 10:39:12;;;;;;;18.75;17.45;;;;;;;28.73;32.94;100009.59;5007204;28;98899;-78
2023/06/16 10:41:54;;;;;;;19.02;17.75;;;;;;;28.79;32.92;100005.34;5015231;28;97450;-78
2023/06/16 10:44:30;;;;;;;19.77;18.20;;;;;;;28.81;33.26;100012.25;5010574;28;97396;-77
2023/06/16 10:47:07;;;;;;;19.67;18.25;;;;;;;28.81;32.71;100004.13;5011471;28;98753;-77
2023/06/16 10:49:43;;;;;;;20.05;18.85;;;;;;;28.90;33.17;100002.22;5013691;28;98786;-77
2023/06/16 10:52:08;;;;;;;19.30;18.05;;;;;;;28.95;33.07;100007.09;5016451;28;97378;-77
2023/06/16 10:54:37;;;;;;;19.00;17.63;;;;;;;29.00;33.21;100007.38;5012061;28;97451;-78
2023/06/16 10:57:06;;;;;;;19.65;18.45;;;;;;;28.97;32.70;100014.00;5011359;28;99070;-78
2023/06/16 10:59:52;;;;;;;19.27;17.97;;;;;;;28.93;32.83;100009.13;5009730;28;98315;-78
2023/06/16 11:02:21;;;;;;;18.77;17.58;;;;;;;28.88;33.08;100007.78;5007713;28;96878;-78
2023/06/16 11:05:11;;;;;;;19.48;17.85;;;;;;;28.86;33.02;100003.63;5010290;28;97191;-77
2023/06/16 11:07:43;;;;;;;;;;;;;;;28.81;32.87;100000.59;5011907;28;97829;-79
2023/06/16 11:10:11;;;;;;;19.58;17.98;;;;;;;28.73;32.73;99996.09;5009383;28;98394;-79
2023/06/16 11:12:37;;;;;;;19.35;17.83;;;;;;;28.66;32.88;99992.44;5001880;28;98792;-78